Time,TemperatureF,DewpointF,PressureIn,WindDirection,WindDirectionDegrees,WindSpeedMPH,WindSpeedGustMPH,Humidity,HourlyPrecipIn,Conditions,Clouds,dailyrainin,SolarRadiationWatts/m^2,SoftwareType,DateUTC
2013-04-21 00:02:00,63.0,63.0,-100.00,ENE,69,0.0,4.0,99,0.00,,,0.00,0.000000,,2013-04-21 10:02:00,
2013-04-21 00:12:00,63.0,63.0,-100.00,ENE,69,0.0,4.0,99,0.00,,,0.00,0.000000,,2013-04-21 10:12:00,
2013-04-21 00:22:00,63.0,63.0,-100.00,ENE,69,0.0,4.0,99,0.00,,,0.00,0.000000,,2013-04-21 10:22:00,
2013-04-21 00:32:00,63.0,63.0,-100.00,ENE,69,0.0,4.0,99,0.00,,,0.00,0.000000,,2013-04-21 10:32:00,
2013-04-21 01:02:00,60.0,60.0,-100.00,NNW,345,0.0,4.0,99,0.00,,,0.00,0.000000,,2013-04-21 11:02:00,
2013-04-21 01:12:00,60.0,60.0,-100.00,NNW,345,0.0,4.0,99,0.00,,,0.00,0.000000,,2013-04-21 11:12:00,
2013-04-21 01:22:00,60.0,60.0,-100.00,NNW,345,0.0,4.0,99,0.00,,,0.00,0.000000,,2013-04-21 11:22:00,
2013-04-21 01:33:00,60.0,60.0,-100.00,NNW,345,0.0,4.0,99,0.00,,,0.00,0.000000,,2013-04-21 11:33:00,
2013-04-21 02:02:00,61.0,61.0,-100.00,SSE,166,2.0,3.0,99,0.00,,,0.00,0.000000,,2013-04-21 12:02:00,
2013-04-21 02:12:00,61.0,61.0,-100.00,SSE,166,2.0,3.0,99,0.00,,,0.00,0.000000,,2013-04-21 12:12:00,
2013-04-21 02:22:00,61.0,61.0,-100.00,SSE,166,2.0,3.0,99,0.00,,,0.00,0.000000,,2013-04-21 12:22:00,
2013-04-21 02:31:00,61.0,61.0,-100.00,SSE,166,2.0,3.0,99,0.00,,,0.00,0.000000,,2013-04-21 12:31:00,
2013-04-21 03:01:00,59.0,55.0,-100.00,SSE,148,7.0,10.0,86,0.00,,,0.00,0.000000,,2013-04-21 13:01:00,
2013-04-21 03:11:00,59.0,55.0,-100.00,SSE,148,7.0,10.0,86,0.00,,,0.00,0.000000,,2013-04-21 13:11:00,
2013-04-21 03:21:00,59.0,55.0,-100.00,SSE,148,7.0,10.0,86,0.00,,,0.00,0.000000,,2013-04-21 13:21:00,
2013-04-21 03:32:00,59.0,55.0,-100.00,SSE,148,7.0,10.0,86,0.00,,,0.00,0.000000,,2013-04-21 13:32:00,
2013-04-21 04:01:00,56.0,55.0,-100.00,SE,129,6.0,11.0,96,0.00,,,0.00,0.000000,,2013-04-21 14:01:00,
2013-04-21 04:11:00,56.0,55.0,-100.00,SE,129,6.0,11.0,96,0.00,,,0.00,0.000000,,2013-04-21 14:11:00,
2013-04-21 04:21:00,56.0,55.0,-100.00,SE,129,6.0,11.0,96,0.00,,,0.00,0.000000,,2013-04-21 14:21:00,
2013-04-21 04:31:00,56.0,55.0,-100.00,SE,129,6.0,11.0,96,0.00,,,0.00,0.000000,,2013-04-21 14:31:00,
2013-04-21 05:02:00,57.0,55.0,-100.00,South,176,7.0,12.0,94,0.00,,,0.00,0.000000,,2013-04-21 15:02:00,
2013-04-21 05:11:00,57.0,55.0,-100.00,South,176,7.0,12.0,94,0.00,,,0.00,0.000000,,2013-04-21 15:11:00,
2013-04-21 05:22:00,57.0,55.0,-100.00,South,176,7.0,12.0,94,0.00,,,0.00,0.000000,,2013-04-21 15:22:00,
2013-04-21 05:33:00,57.0,55.0,-100.00,South,176,7.0,12.0,94,0.00,,,0.00,0.000000,,2013-04-21 15:33:00,
2013-04-21 06:03:00,55.0,51.0,-100.00,SE,141,5.0,11.0,86,0.00,,,0.00,0.000000,,2013-04-21 16:03:00,
2013-04-21 06:12:00,55.0,51.0,-100.00,SE,141,5.0,11.0,86,0.00,,,0.00,0.000000,,2013-04-21 16:12:00,
2013-04-21 06:22:00,55.0,51.0,-100.00,SE,141,5.0,11.0,86,0.00,,,0.00,0.000000,,2013-04-21 16:22:00,
2013-04-21 06:32:00,55.0,51.0,-100.00,SE,141,5.0,11.0,86,0.00,,,0.00,0.000000,,2013-04-21 16:32:00,
2013-04-21 07:02:00,58.0,54.0,-100.00,SSE,153,6.0,9.0,88,0.00,,,0.00,19.000000,,2013-04-21 17:02:00,
2013-04-21 07:12:00,58.0,54.0,-100.00,SSE,153,6.0,9.0,88,0.00,,,0.00,19.000000,,2013-04-21 17:12:00,
2013-04-21 07:22:00,58.0,54.0,-100.00,SSE,153,6.0,9.0,88,0.00,,,0.00,19.000000,,2013-04-21 17:22:00,
2013-04-21 07:32:00,58.0,54.0,-100.00,SSE,153,6.0,9.0,88,0.00,,,0.00,19.000000,,2013-04-21 17:32:00,
2013-04-21 08:02:00,68.0,55.0,-100.00,South,178,3.0,8.0,64,0.00,,,0.00,233.000000,,2013-04-21 18:02:00,
2013-04-21 08:11:00,68.0,55.0,-100.00,South,178,3.0,8.0,64,0.00,,,0.00,233.000000,,2013-04-21 18:11:00,
2013-04-21 08:22:00,68.0,55.0,-100.00,South,178,3.0,8.0,64,0.00,,,0.00,233.000000,,2013-04-21 18:22:00,
2013-04-21 08:32:00,68.0,55.0,-100.00,South,178,3.0,8.0,64,0.00,,,0.00,233.000000,,2013-04-21 18:32:00,
2013-04-21 09:02:00,73.0,53.0,-100.00,SW,234,1.0,6.0,50,0.00,,,0.00,539.000000,,2013-04-21 19:02:00,
2013-04-21 09:11:00,73.0,53.0,-100.00,SW,234,1.0,6.0,50,0.00,,,0.00,539.000000,,2013-04-21 19:11:00,
2013-04-21 09:21:00,73.0,53.0,-100.00,SW,234,1.0,6.0,50,0.00,,,0.00,539.000000,,2013-04-21 19:21:00,
2013-04-21 09:31:00,73.0,53.0,-100.00,SW,234,1.0,6.0,50,0.00,,,0.00,539.000000,,2013-04-21 19:31:00,
2013-04-21 10:01:00,73.0,54.0,-100.00,NW,313,4.0,11.0,51,0.00,,,0.00,861.000000,,2013-04-21 20:01:00,
2013-04-21 10:11:00,73.0,54.0,-100.00,NW,313,4.0,11.0,51,0.00,,,0.00,861.000000,,2013-04-21 20:11:00,
2013-04-21 10:22:00,73.0,54.0,-100.00,NW,313,4.0,11.0,51,0.00,,,0.00,861.000000,,2013-04-21 20:22:00,
2013-04-21 10:31:00,73.0,54.0,-100.00,NW,313,4.0,11.0,51,0.00,,,0.00,861.000000,,2013-04-21 20:31:00,
2013-04-21 11:02:00,74.0,56.0,-100.00,NNW,329,8.0,20.0,53,0.00,,,0.00,804.000000,,2013-04-21 21:02:00,
2013-04-21 11:12:00,74.0,56.0,-100.00,NNW,329,8.0,20.0,53,0.00,,,0.00,804.000000,,2013-04-21 21:12:00,
2013-04-21 11:21:00,74.0,56.0,-100.00,NNW,329,8.0,20.0,53,0.00,,,0.00,804.000000,,2013-04-21 21:21:00,
2013-04-21 11:32:00,74.0,56.0,-100.00,NNW,329,8.0,20.0,53,0.00,,,0.00,804.000000,,2013-04-21 21:32:00,
2013-04-21 12:02:00,74.0,57.0,-100.00,NNW,335,6.0,14.0,55,0.00,,,0.00,800.000000,,2013-04-21 22:02:00,
2013-04-21 12:12:00,74.0,57.0,-100.00,NNW,335,6.0,14.0,55,0.00,,,0.00,800.000000,,2013-04-21 22:12:00,
2013-04-21 12:22:00,74.0,57.0,-100.00,NNW,335,6.0,14.0,55,0.00,,,0.00,800.000000,,2013-04-21 22:22:00,
2013-04-21 12:32:00,74.0,57.0,-100.00,NNW,335,6.0,14.0,55,0.00,,,0.00,800.000000,,2013-04-21 22:32:00,
2013-04-21 13:02:00,73.0,60.0,-100.00,NW,308,10.0,20.0,64,0.00,,,0.00,637.000000,,2013-04-21 23:02:00,
2013-04-21 13:12:00,73.0,60.0,-100.00,NW,308,10.0,20.0,64,0.00,,,0.00,637.000000,,2013-04-21 23:12:00,
2013-04-21 13:22:00,73.0,60.0,-100.00,NW,308,10.0,20.0,64,0.00,,,0.00,637.000000,,2013-04-21 23:22:00,
2013-04-21 13:32:00,73.0,60.0,-100.00,NW,308,10.0,20.0,64,0.00,,,0.00,637.000000,,2013-04-21 23:32:00,
2013-04-21 14:01:00,70.0,62.0,-100.00,NW,316,10.0,16.0,75,0.00,,,0.00,587.000000,,2013-04-22 00:01:00,
2013-04-21 14:11:00,70.0,62.0,-100.00,NW,316,10.0,16.0,75,0.00,,,0.00,587.000000,,2013-04-22 00:11:00,
2013-04-21 14:21:00,70.0,62.0,-100.00,NW,316,10.0,16.0,75,0.00,,,0.00,587.000000,,2013-04-22 00:21:00,
2013-04-21 14:31:00,70.0,62.0,-100.00,NW,316,10.0,16.0,75,0.00,,,0.00,587.000000,,2013-04-22 00:31:00,
2013-04-21 15:01:00,69.0,61.0,-100.00,NW,313,9.0,15.0,77,0.00,,,0.00,382.000000,,2013-04-22 01:01:00,
2013-04-21 15:12:00,69.0,61.0,-100.00,NW,313,9.0,15.0,77,0.00,,,0.00,382.000000,,2013-04-22 01:12:00,
2013-04-21 15:21:00,69.0,61.0,-100.00,NW,313,9.0,15.0,77,0.00,,,0.00,382.000000,,2013-04-22 01:21:00,
2013-04-21 15:32:00,69.0,61.0,-100.00,NW,313,9.0,15.0,77,0.00,,,0.00,382.000000,,2013-04-22 01:32:00,
2013-04-21 16:01:00,69.0,61.0,-100.00,WNW,301,6.0,14.0,77,0.00,,,0.00,348.000000,,2013-04-22 02:01:00,
2013-04-21 16:11:00,69.0,61.0,-100.00,WNW,301,6.0,14.0,77,0.00,,,0.00,348.000000,,2013-04-22 02:11:00,
2013-04-21 16:21:00,69.0,61.0,-100.00,WNW,301,6.0,14.0,77,0.00,,,0.00,348.000000,,2013-04-22 02:21:00,
2013-04-21 16:31:00,69.0,61.0,-100.00,WNW,301,6.0,14.0,77,0.00,,,0.00,348.000000,,2013-04-22 02:31:00,
2013-04-21 17:02:00,71.0,64.0,-100.00,NW,322,6.0,13.0,78,0.00,,,0.00,311.000000,,2013-04-22 03:02:00,
2013-04-21 17:11:00,71.0,64.0,-100.00,NW,322,6.0,13.0,78,0.00,,,0.00,311.000000,,2013-04-22 03:11:00,
2013-04-21 17:22:00,71.0,64.0,-100.00,NW,322,6.0,13.0,78,0.00,,,0.00,311.000000,,2013-04-22 03:22:00,
2013-04-21 17:33:00,71.0,64.0,-100.00,NW,322,6.0,13.0,78,0.00,,,0.00,311.000000,,2013-04-22 03:33:00,
2013-04-21 18:02:00,67.0,63.0,-100.00,NNW,337,6.0,11.0,86,0.00,,,0.00,130.000000,,2013-04-22 04:02:00,
2013-04-21 18:12:00,67.0,63.0,-100.00,NNW,337,6.0,11.0,86,0.00,,,0.00,130.000000,,2013-04-22 04:12:00,
2013-04-21 18:23:00,67.0,63.0,-100.00,NNW,337,6.0,11.0,86,0.00,,,0.00,130.000000,,2013-04-22 04:23:00,
2013-04-21 18:32:00,67.0,63.0,-100.00,NNW,337,6.0,11.0,86,0.00,,,0.00,130.000000,,2013-04-22 04:32:00,
2013-04-21 19:02:00,68.0,63.0,-100.00,NNW,336,5.0,11.0,85,0.00,,,0.00,40.000000,,2013-04-22 05:02:00,
2013-04-21 19:11:00,68.0,63.0,-100.00,NNW,336,5.0,11.0,85,0.00,,,0.00,40.000000,,2013-04-22 05:11:00,
2013-04-21 19:22:00,68.0,63.0,-100.00,NNW,336,5.0,11.0,85,0.00,,,0.00,40.000000,,2013-04-22 05:22:00,
2013-04-21 19:32:00,68.0,63.0,-100.00,NNW,336,5.0,11.0,85,0.00,,,0.00,40.000000,,2013-04-22 05:32:00,
2013-04-21 20:02:00,65.0,65.0,-100.00,North,356,4.0,8.0,99,0.00,,,0.00,0.000000,,2013-04-22 06:02:00,
2013-04-21 20:12:00,65.0,65.0,-100.00,North,356,4.0,8.0,99,0.00,,,0.00,0.000000,,2013-04-22 06:12:00,
2013-04-21 20:21:00,65.0,65.0,-100.00,North,356,4.0,8.0,99,0.00,,,0.00,0.000000,,2013-04-22 06:21:00,
2013-04-21 20:32:00,65.0,65.0,-100.00,North,356,4.0,8.0,99,0.00,,,0.00,0.000000,,2013-04-22 06:32:00,
2013-04-21 21:01:00,64.0,64.0,-100.00,North,11,2.0,8.0,99,0.00,,,0.00,0.000000,,2013-04-22 07:01:00,
2013-04-21 21:11:00,64.0,64.0,-100.00,North,11,2.0,8.0,99,0.00,,,0.00,0.000000,,2013-04-22 07:11:00,
2013-04-21 21:21:00,64.0,64.0,-100.00,North,11,2.0,8.0,99,0.00,,,0.00,0.000000,,2013-04-22 07:21:00,
2013-04-21 21:31:00,64.0,64.0,-100.00,North,11,2.0,8.0,99,0.00,,,0.00,0.000000,,2013-04-22 07:31:00,
2013-04-21 22:01:00,63.0,63.0,-100.00,ENE,64,1.0,5.0,99,0.00,,,0.00,0.000000,,2013-04-22 08:01:00,
2013-04-21 22:11:00,63.0,63.0,-100.00,ENE,64,1.0,5.0,99,0.00,,,0.00,0.000000,,2013-04-22 08:11:00,
2013-04-21 22:22:00,63.0,63.0,-100.00,ENE,64,1.0,5.0,99,0.00,,,0.00,0.000000,,2013-04-22 08:22:00,
2013-04-21 22:32:00,63.0,63.0,-100.00,ENE,64,1.0,5.0,99,0.00,,,0.00,0.000000,,2013-04-22 08:32:00,
2013-04-21 23:01:00,63.0,59.0,-100.00,SE,136,5.0,8.0,86,0.00,,,0.00,0.000000,,2013-04-22 09:01:00,
2013-04-21 23:11:00,63.0,59.0,-100.00,SE,136,5.0,8.0,86,0.00,,,0.00,0.000000,,2013-04-22 09:11:00,
2013-04-21 23:21:00,63.0,59.0,-100.00,SE,136,5.0,8.0,86,0.00,,,0.00,0.000000,,2013-04-22 09:21:00,
2013-04-21 23:32:00,63.0,59.0,-100.00,SE,136,5.0,8.0,86,0.00,,,0.00,0.000000,,2013-04-22 09:32:00,